createdAt,value
2018-09-04T00:02:25.728Z,39.20
2018-09-04T00:04:59.948Z,39.13
2018-09-04T00:07:33.694Z,37.03
2018-09-04T00:10:07.732Z,36.28
2018-09-04T00:12:42.740Z,38.88
2018-09-04T00:15:16.738Z,40.15
2018-09-04T00:17:51.155Z,37.73
2018-09-04T00:20:26.108Z,38.58
2018-09-04T00:23:00.224Z,38.13
2018-09-04T00:25:34.265Z,37.88
2018-09-04T00:28:08.529Z,39.63
2018-09-04T00:30:42.484Z,39.10
2018-09-04T00:33:16.524Z,36.75
2018-09-04T00:35:51.058Z,39.08
2018-09-04T00:38:25.250Z,40.03
2018-09-04T00:40:59.120Z,39.15
2018-09-04T00:43:33.145Z,39.30
2018-09-04T00:46:08.094Z,38.95
2018-09-04T00:48:41.903Z,40.38
2018-09-04T00:51:16.400Z,40.48
2018-09-04T00:53:50.401Z,38.80
2018-09-04T00:56:24.430Z,37.53
2018-09-04T00:58:58.510Z,37.83
2018-09-04T01:01:32.343Z,39.38
2018-09-04T01:04:06.264Z,40.12
2018-09-04T01:06:40.239Z,40.67
2018-09-04T01:09:22.164Z,40.23
2018-09-04T01:11:56.133Z,38.05
2018-09-04T01:14:29.942Z,40.92
2018-09-04T01:17:03.709Z,40.08
2018-09-04T01:19:37.575Z,39.48
2018-09-04T01:22:11.540Z,41.00
2018-09-04T01:24:45.699Z,39.27
2018-09-04T01:27:19.964Z,40.65
2018-09-04T01:29:53.943Z,41.15
2018-09-04T01:32:27.729Z,38.02
2018-09-04T01:35:01.658Z,42.53
2018-09-04T01:37:35.578Z,42.35
2018-09-04T01:40:09.504Z,40.30
2018-09-04T01:42:43.714Z,41.80
2018-09-04T01:45:17.871Z,42.30
2018-09-04T01:47:51.662Z,42.55
2018-09-04T01:50:25.708Z,43.33
2018-09-04T01:52:59.702Z,43.52
2018-09-04T01:55:33.838Z,42.85
2018-09-04T01:58:07.847Z,41.95
2018-09-04T02:00:41.679Z,41.15
2018-09-04T02:03:15.494Z,42.20
2018-09-04T02:05:49.995Z,43.78
2018-09-04T02:08:23.989Z,44.10
2018-09-04T02:10:58.129Z,45.25
2018-09-04T02:13:31.959Z,43.75
2018-09-04T02:16:06.023Z,43.70
2018-09-04T02:18:40.038Z,43.90
2018-09-04T02:21:13.949Z,40.73
2018-09-04T02:23:47.944Z,44.42
2018-09-04T02:26:22.178Z,44.73
2018-09-04T02:28:55.978Z,44.98
2018-09-04T02:31:30.106Z,46.10
2018-09-04T02:34:04.128Z,45.90
2018-09-04T02:36:37.995Z,43.80
2018-09-04T02:39:13.342Z,46.68
2018-09-04T02:41:53.965Z,46.98
2018-09-04T02:44:28.076Z,47.65
2018-09-04T02:47:02.075Z,49.40
2018-09-04T02:52:16.615Z,51.68
2018-09-04T02:54:50.493Z,51.25
2018-09-04T02:57:24.703Z,48.00
2018-09-04T02:59:59.367Z,49.85
2018-09-04T03:02:33.529Z,50.52
2018-09-04T03:05:07.505Z,48.45
2018-09-04T03:07:41.209Z,52.58
2018-09-04T03:10:15.435Z,46.55
2018-09-04T03:12:49.328Z,48.42
2018-09-04T03:15:23.543Z,49.45
2018-09-04T03:17:57.729Z,48.60
2018-09-04T03:20:32.294Z,54.83
2018-09-04T03:23:06.588Z,51.55
2018-09-04T03:25:41.870Z,49.27
2018-09-04T03:28:16.718Z,50.92
2018-09-04T03:30:50.770Z,51.37
2018-09-04T03:33:25.138Z,51.10
2018-09-04T03:35:59.239Z,54.55
2018-09-04T03:38:33.124Z,52.60
2018-09-04T03:41:07.115Z,54.23
2018-09-04T03:43:41.249Z,55.63
2018-09-04T03:46:14.963Z,55.98
2018-09-04T03:48:49.222Z,54.40
2018-09-04T03:51:23.133Z,50.92
2018-09-04T03:53:57.727Z,56.75
2018-09-04T03:56:31.718Z,59.88
2018-09-04T03:59:05.465Z,54.83
2018-09-04T04:01:39.550Z,61.25
2018-09-04T04:04:13.858Z,59.55
2018-09-04T04:06:47.860Z,60.05
2018-09-04T04:09:22.539Z,62.45
2018-09-04T04:11:56.697Z,64.40
2018-09-04T04:14:30.938Z,56.15
2018-09-04T04:17:05.298Z,58.02
2018-09-04T04:19:39.119Z,64.67
2018-09-04T04:22:13.175Z,65.32
2018-09-04T04:24:46.948Z,61.40
2018-09-04T04:27:20.971Z,60.30
2018-09-04T04:29:55.068Z,64.87
2018-09-04T04:32:29.143Z,58.60
2018-09-04T04:35:03.515Z,59.85
2018-09-04T04:37:37.418Z,61.45
2018-09-04T04:40:11.492Z,63.15
2018-09-04T04:42:45.575Z,61.83
2018-09-04T04:45:19.378Z,62.98
2018-09-04T04:47:53.452Z,66.67
2018-09-04T04:50:27.625Z,63.33
2018-09-04T04:53:01.559Z,65.37
2018-09-04T04:55:35.457Z,61.45
2018-09-04T04:58:09.450Z,62.17
2018-09-04T05:00:43.424Z,63.58
2018-09-04T05:03:17.433Z,57.30
2018-09-04T05:05:51.361Z,59.15
2018-09-04T05:08:25.339Z,61.37
2018-09-04T05:11:00.395Z,62.45
2018-09-04T05:13:34.463Z,60.70
2018-09-04T05:16:08.504Z,59.83
2018-09-04T05:18:42.560Z,58.50
2018-09-04T05:21:16.594Z,60.33
2018-09-04T05:23:50.332Z,59.23
2018-09-04T05:26:24.479Z,55.90
2018-09-04T05:28:58.759Z,59.42
2018-09-04T05:31:37.518Z,58.63
2018-09-04T05:34:11.669Z,57.50
2018-09-04T05:36:45.622Z,56.40
2018-09-04T05:39:19.917Z,57.30
2018-09-04T05:41:58.680Z,58.52
2018-09-04T05:44:32.802Z,56.35
2018-09-04T05:47:07.193Z,59.18
2018-09-04T05:49:41.242Z,57.13
2018-09-04T05:52:15.212Z,56.40
2018-09-04T05:54:48.999Z,55.15
2018-09-04T05:57:23.212Z,55.67
2018-09-04T05:59:57.530Z,53.20
2018-09-04T06:02:31.534Z,53.15
2018-09-04T06:05:05.444Z,54.03
2018-09-04T06:07:39.362Z,52.85
2018-09-04T06:10:13.918Z,56.40
2018-09-04T06:12:47.998Z,56.63
2018-09-04T06:15:21.889Z,52.85
2018-09-04T06:17:56.165Z,53.40
2018-09-04T06:20:30.035Z,54.03
2018-09-04T06:23:04.459Z,53.08
2018-09-04T06:25:38.442Z,51.37
2018-09-04T06:28:12.389Z,52.70
2018-09-04T06:30:46.515Z,51.37
2018-09-04T06:33:20.617Z,50.70
2018-09-04T06:35:54.719Z,51.02
2018-09-04T06:38:28.933Z,50.67
2018-09-04T06:41:05.983Z,47.30
2018-09-04T06:43:40.234Z,52.62
2018-09-04T06:46:13.975Z,55.28
2018-09-04T06:48:47.947Z,49.80
2018-09-04T06:51:21.668Z,52.05
2018-09-04T06:53:55.585Z,53.83
2018-09-04T06:56:29.674Z,52.85
2018-09-04T06:59:03.880Z,49.08
2018-09-04T07:01:37.980Z,51.58
2018-09-04T07:04:12.320Z,48.68
2018-09-04T07:06:46.380Z,47.93
2018-09-04T07:09:20.591Z,51.23
2018-09-04T07:11:54.605Z,50.50
2018-09-04T07:14:29.303Z,49.60
2018-09-04T07:17:04.298Z,49.08
2018-09-04T07:19:38.468Z,50.00
2018-09-04T07:22:12.457Z,44.58
2018-09-04T07:24:53.118Z,46.90
2018-09-04T07:27:27.133Z,49.10
2018-09-04T07:30:01.263Z,51.30
2018-09-04T07:32:35.339Z,47.73
2018-09-04T07:35:09.454Z,48.83
2018-09-04T07:37:43.779Z,48.95
2018-09-04T07:40:17.828Z,51.83
2018-09-04T07:42:51.889Z,51.23
2018-09-04T07:45:26.138Z,50.48
2018-09-04T07:48:00.195Z,51.68
2018-09-04T07:50:34.145Z,51.90
2018-09-04T07:53:08.058Z,53.02
2018-09-04T07:55:42.408Z,52.38
2018-09-04T07:58:16.175Z,57.08
2018-09-04T08:00:50.823Z,54.08
2018-09-04T08:03:24.685Z,55.70
2018-09-04T08:05:59.017Z,53.95
2018-09-04T08:08:32.948Z,55.48
2018-09-04T08:11:07.053Z,53.23
2018-09-04T08:13:41.098Z,52.50
2018-09-04T08:16:14.963Z,58.50
2018-09-04T08:18:49.099Z,57.43
2018-09-04T08:21:23.715Z,61.25
2018-09-04T08:23:57.633Z,57.85
2018-09-04T08:26:31.588Z,59.03
2018-09-04T08:29:05.490Z,56.98
2018-09-04T08:31:39.548Z,57.93
2018-09-04T08:34:14.015Z,55.50
2018-09-04T08:36:48.328Z,56.77
2018-09-04T08:39:23.038Z,52.40
2018-09-04T08:41:56.939Z,54.93
2018-09-04T08:44:30.825Z,59.60
2018-09-04T08:47:05.081Z,60.30
2018-09-04T08:49:39.888Z,57.13
2018-09-04T08:52:16.252Z,57.55
2018-09-04T08:54:50.430Z,57.60
2018-09-04T08:57:24.854Z,58.45
2018-09-04T08:59:58.972Z,58.05
2018-09-04T09:02:32.744Z,56.15
2018-09-04T09:05:06.816Z,56.05
2018-09-04T09:07:40.764Z,55.88
2018-09-04T09:10:14.950Z,54.50
2018-09-04T09:12:49.195Z,54.27
2018-09-04T09:15:23.678Z,54.18
2018-09-04T09:17:57.670Z,52.08
2018-09-04T09:20:31.729Z,52.10
2018-09-04T09:23:05.575Z,53.75
2018-09-04T09:25:42.839Z,51.53
2018-09-04T09:28:16.929Z,52.83
2018-09-04T09:30:51.168Z,53.63
2018-09-04T09:33:25.356Z,48.75
2018-09-04T09:35:59.420Z,49.85
2018-09-04T09:38:33.610Z,51.98
2018-09-04T09:41:07.815Z,49.63
2018-09-04T09:43:42.083Z,53.75
2018-09-04T09:46:16.211Z,53.92
2018-09-04T09:48:50.924Z,54.60
2018-09-04T09:51:25.001Z,53.17
2018-09-04T09:53:59.159Z,51.40
2018-09-04T09:56:33.096Z,54.10
2018-09-04T09:59:07.049Z,53.42
2018-09-04T10:01:47.009Z,53.73
2018-09-04T10:04:21.009Z,52.20
2018-09-04T10:06:55.193Z,49.70
2018-09-04T10:09:29.570Z,56.68
2018-09-04T10:12:03.889Z,54.53
2018-09-04T10:14:38.765Z,52.95
2018-09-04T10:17:13.545Z,53.33
2018-09-04T10:19:48.061Z,54.38
2018-09-04T10:22:22.909Z,49.48
2018-09-04T10:24:56.988Z,50.67
2018-09-04T10:27:31.654Z,51.60
2018-09-04T10:30:07.695Z,51.90
2018-09-04T10:32:50.244Z,52.88
2018-09-04T10:35:24.237Z,51.73
2018-09-04T10:37:58.375Z,53.17
2018-09-04T10:40:38.558Z,48.83
2018-09-04T10:43:12.400Z,49.18
2018-09-04T10:45:51.990Z,46.13
2018-09-04T10:48:26.144Z,45.85
2018-09-04T10:51:00.279Z,45.33
2018-09-04T10:53:34.519Z,45.23
2018-09-04T10:56:08.746Z,43.55
2018-09-04T10:58:42.898Z,41.35
2018-09-04T11:01:16.935Z,40.83
2018-09-04T11:03:51.166Z,39.30
2018-09-04T11:06:25.256Z,38.05
2018-09-04T11:08:59.310Z,38.60
2018-09-04T11:11:33.274Z,38.13
2018-09-04T11:14:07.485Z,39.48
2018-09-04T11:16:41.582Z,38.60
2018-09-04T11:19:15.319Z,39.80
2018-09-04T11:21:49.528Z,40.33
2018-09-04T11:24:23.649Z,38.92
2018-09-04T11:26:57.653Z,39.48
2018-09-04T11:29:31.545Z,39.38
2018-09-04T11:32:05.634Z,36.00
2018-09-04T11:34:39.568Z,36.25
2018-09-04T11:37:14.113Z,34.13
2018-09-04T11:39:48.681Z,33.38
2018-09-04T11:42:22.620Z,32.98
2018-09-04T11:44:56.953Z,35.15
2018-09-04T11:47:31.144Z,33.88
2018-09-04T11:50:05.243Z,36.45
2018-09-04T11:52:39.138Z,34.13
2018-09-04T11:55:13.151Z,35.10
2018-09-04T11:57:47.248Z,32.00
2018-09-04T12:00:28.159Z,28.83
2018-09-04T12:03:02.085Z,26.07
2018-09-04T12:05:36.219Z,24.90
2018-09-04T12:08:10.540Z,20.57
2018-09-04T12:10:44.728Z,18.45
2018-09-04T12:13:24.195Z,18.20
2018-09-04T12:15:59.136Z,17.67
2018-09-04T12:18:33.142Z,16.90
2018-09-04T12:21:07.978Z,14.75
2018-09-04T12:23:41.878Z,14.58
2018-09-04T12:26:16.174Z,15.90
2018-09-04T12:28:50.390Z,18.92
2018-09-04T12:31:24.585Z,19.95
2018-09-04T12:33:59.560Z,19.12
2018-09-04T12:36:33.795Z,16.35
2018-09-04T12:39:07.845Z,15.63
2018-09-04T12:41:41.964Z,13.80
2018-09-04T12:44:15.975Z,15.93
2018-09-04T12:46:49.986Z,15.70
2018-09-04T12:49:24.638Z,16.73
2018-09-04T12:51:59.156Z,15.28
2018-09-04T12:54:33.019Z,16.40
2018-09-04T12:57:07.102Z,16.37
2018-09-04T12:59:40.922Z,15.72
2018-09-04T13:02:15.264Z,16.65
2018-09-04T13:04:49.214Z,17.00
2018-09-04T13:07:24.147Z,16.35
2018-09-04T13:09:58.061Z,15.72
2018-09-04T13:12:32.128Z,15.18
2018-09-04T13:15:06.611Z,15.95
2018-09-04T13:17:40.999Z,15.40
2018-09-04T13:20:15.225Z,15.15
2018-09-04T13:22:49.406Z,13.85
2018-09-04T13:25:23.369Z,15.03
2018-09-04T13:27:57.547Z,14.43
2018-09-04T13:30:31.986Z,14.23
2018-09-04T13:33:06.461Z,14.28
2018-09-04T13:35:41.697Z,14.90
2018-09-04T13:38:15.808Z,14.53
2018-09-04T13:40:54.299Z,14.65
2018-09-04T13:43:28.354Z,14.78
2018-09-04T13:46:02.700Z,15.55
2018-09-04T13:48:36.698Z,14.95
2018-09-04T13:51:11.585Z,14.87
2018-09-04T13:53:45.673Z,14.80
2018-09-04T13:56:19.593Z,14.38
2018-09-04T13:58:53.880Z,14.58
2018-09-04T14:01:27.659Z,15.15
2018-09-04T14:04:01.718Z,15.95
2018-09-04T14:06:36.127Z,15.38
2018-09-04T14:09:10.349Z,15.70
2018-09-04T14:11:44.335Z,15.68
2018-09-04T14:14:18.444Z,16.37
2018-09-04T14:16:52.550Z,15.88
2018-09-04T14:19:26.478Z,15.75
2018-09-04T14:22:00.822Z,15.58
2018-09-04T14:24:34.946Z,15.45
2018-09-04T14:27:09.421Z,15.88
2018-09-04T14:32:17.468Z,15.03
2018-09-04T14:34:51.330Z,15.63
2018-09-04T14:37:25.449Z,14.43
2018-09-04T14:39:59.450Z,13.85
2018-09-04T14:42:33.361Z,14.43
2018-09-04T14:45:07.655Z,15.03
2018-09-04T14:47:41.435Z,14.13
2018-09-04T14:50:15.367Z,14.18
2018-09-04T14:52:49.451Z,13.43
2018-09-04T14:55:23.444Z,13.38
2018-09-04T14:57:58.154Z,12.82
2018-09-04T15:00:32.243Z,13.28
2018-09-04T15:03:06.391Z,13.78
2018-09-04T15:05:40.452Z,12.90
2018-09-04T15:08:14.441Z,13.43
2018-09-04T15:10:51.701Z,13.38
2018-09-04T15:13:25.662Z,13.72
2018-09-04T15:15:59.999Z,13.05
2018-09-04T15:18:34.009Z,13.40
2018-09-04T15:21:08.176Z,13.40
2018-09-04T15:23:42.010Z,12.37
2018-09-04T15:26:16.268Z,11.97
2018-09-04T15:28:50.340Z,11.88
2018-09-04T15:31:25.184Z,12.50
2018-09-04T15:33:59.362Z,12.53
2018-09-04T15:36:33.161Z,12.33
2018-09-04T15:39:08.141Z,12.10
2018-09-04T15:41:42.170Z,12.13
2018-09-04T15:44:22.959Z,12.05
2018-09-04T15:46:57.025Z,12.55
2018-09-04T15:49:36.665Z,13.10
2018-09-04T15:52:10.535Z,13.40
2018-09-04T15:54:44.831Z,13.35
2018-09-04T15:57:18.980Z,12.68
2018-09-04T15:59:52.852Z,12.68
2018-09-04T16:02:26.989Z,17.50
2018-09-04T16:05:01.308Z,15.48
2018-09-04T16:07:35.630Z,16.95
2018-09-04T16:10:09.801Z,17.70
2018-09-04T16:12:43.811Z,16.25
2018-09-04T16:15:18.163Z,15.78
2018-09-04T16:17:52.352Z,15.25
2018-09-04T16:20:26.744Z,15.43
2018-09-04T16:23:00.843Z,15.95
2018-09-04T16:25:34.783Z,16.73
2018-09-04T16:28:08.902Z,17.00
2018-09-04T16:30:43.407Z,15.93
2018-09-04T16:33:18.330Z,17.62
2018-09-04T16:35:52.414Z,17.73
2018-09-04T16:38:26.627Z,16.97
2018-09-04T16:41:01.253Z,15.85
2018-09-04T16:43:38.423Z,14.68
2018-09-04T16:46:12.234Z,14.75
2018-09-04T16:48:46.386Z,15.10
2018-09-04T16:51:20.370Z,15.95
2018-09-04T16:53:54.487Z,15.58
2018-09-04T16:56:28.816Z,15.43
2018-09-04T16:59:03.016Z,15.30
2018-09-04T17:01:37.212Z,16.57
2018-09-04T17:04:11.285Z,16.57
2018-09-04T17:06:45.880Z,17.60
2018-09-04T17:09:20.426Z,17.50
2018-09-04T17:11:54.418Z,19.07
2018-09-04T17:14:28.683Z,20.27
2018-09-04T17:17:02.844Z,20.77
2018-09-04T17:19:37.059Z,20.15
2018-09-04T17:22:11.127Z,21.07
2018-09-04T17:24:45.141Z,21.52
2018-09-04T17:27:19.236Z,21.52
2018-09-04T17:29:54.133Z,22.27
2018-09-04T17:32:28.019Z,23.00
2018-09-04T17:35:02.031Z,22.80
2018-09-04T17:37:37.554Z,21.57
2018-09-04T17:40:11.703Z,22.10
2018-09-04T17:42:45.923Z,24.82
2018-09-04T17:45:20.181Z,24.02
2018-09-04T17:47:55.129Z,22.50
2018-09-04T17:50:29.527Z,24.55
2018-09-04T17:53:09.559Z,26.12
2018-09-04T17:55:43.808Z,25.80
2018-09-04T17:58:18.116Z,26.50
2018-09-04T18:00:52.188Z,26.68
2018-09-04T18:03:26.395Z,26.82
2018-09-04T18:06:00.388Z,28.15
2018-09-04T18:08:34.673Z,28.38
2018-09-04T18:11:08.841Z,28.85
2018-09-04T18:13:42.954Z,28.40
2018-09-04T18:16:17.158Z,27.82
2018-09-04T18:18:51.555Z,28.27
2018-09-04T18:21:26.027Z,27.27
2018-09-04T18:24:00.717Z,25.95
2018-09-04T18:26:34.980Z,23.00
2018-09-04T18:29:09.396Z,27.90
2018-09-04T18:31:43.594Z,27.65
2018-09-04T18:34:17.783Z,28.15
2018-09-04T18:36:51.774Z,29.30
2018-09-04T18:39:26.331Z,30.10
2018-09-04T18:42:00.428Z,29.07
2018-09-04T18:44:34.908Z,29.12
2018-09-04T18:47:09.053Z,29.90
2018-09-04T18:49:43.223Z,31.62
2018-09-04T18:52:17.306Z,32.35
2018-09-04T18:54:51.559Z,32.65
2018-09-04T18:57:26.044Z,32.05
2018-09-04T19:00:00.046Z,29.75
2018-09-04T19:02:34.451Z,32.20
2018-09-04T19:05:08.730Z,31.80
2018-09-04T19:07:42.971Z,29.77
2018-09-04T19:10:17.386Z,30.12
2018-09-04T19:12:51.753Z,30.60
2018-09-04T19:15:26.468Z,31.68
2018-09-04T19:18:00.884Z,31.15
2018-09-04T19:20:34.982Z,31.45
2018-09-04T19:23:08.974Z,31.90
2018-09-04T19:25:43.705Z,32.50
2018-09-04T19:28:17.659Z,32.58
2018-09-04T19:30:52.356Z,33.78
2018-09-04T19:33:26.699Z,29.18
2018-09-04T19:36:00.725Z,33.78
2018-09-04T19:38:34.885Z,32.65
2018-09-04T19:41:09.030Z,30.30
2018-09-04T19:43:43.193Z,32.17
2018-09-04T19:46:17.331Z,31.57
2018-09-04T19:48:51.407Z,31.37
2018-09-04T19:51:32.765Z,30.27
2018-09-04T19:54:06.959Z,31.77
2018-09-04T19:56:41.082Z,30.17
2018-09-04T19:59:15.376Z,30.08
2018-09-04T20:01:49.605Z,29.80
2018-09-04T20:04:24.024Z,31.20
2018-09-04T20:06:58.434Z,30.37
2018-09-04T20:09:32.640Z,29.67
2018-09-04T20:12:06.902Z,30.43
2018-09-04T20:14:41.036Z,31.77
2018-09-04T20:17:15.097Z,30.02
2018-09-04T20:19:50.553Z,29.63
2018-09-04T20:22:24.863Z,29.60
2018-09-04T20:24:58.800Z,28.50
2018-09-04T20:27:32.998Z,28.67
2018-09-04T20:30:06.990Z,29.12
2018-09-04T20:32:41.120Z,28.30
2018-09-04T20:35:15.397Z,29.30
2018-09-04T20:37:49.453Z,30.32
2018-09-04T20:40:24.564Z,30.40
2018-09-04T20:42:59.007Z,29.18
2018-09-04T20:45:33.539Z,30.45
2018-09-04T20:48:07.835Z,29.37
2018-09-04T20:50:42.309Z,29.23
2018-09-04T20:53:16.364Z,28.70
2018-09-04T20:55:51.126Z,27.48
2018-09-04T20:58:36.463Z,25.48
2018-09-04T21:01:21.813Z,25.90
2018-09-04T21:04:07.267Z,24.40
2018-09-04T21:09:39.396Z,24.92
2018-09-04T21:12:13.256Z,26.17
2018-09-04T21:14:47.548Z,26.80
2018-09-04T21:17:21.606Z,27.55
2018-09-04T21:19:55.805Z,26.82
2018-09-04T21:22:29.999Z,27.58
2018-09-04T21:25:04.124Z,24.32
2018-09-04T21:27:38.289Z,25.68
2018-09-04T21:30:12.305Z,22.80
2018-09-04T21:32:47.236Z,25.00
2018-09-04T21:35:21.625Z,24.55
2018-09-04T21:37:55.904Z,25.12
2018-09-04T21:40:30.120Z,25.75
2018-09-04T21:43:04.468Z,26.17
2018-09-04T21:45:38.589Z,25.23
2018-09-04T21:48:12.440Z,26.10
2018-09-04T21:50:46.544Z,25.92
2018-09-04T21:53:20.581Z,25.55
2018-09-04T21:55:54.505Z,23.57
2018-09-04T21:58:28.431Z,25.45
2018-09-04T22:01:02.364Z,24.32
2018-09-04T22:03:36.730Z,25.50
2018-09-04T22:06:10.548Z,24.85
2018-09-04T22:08:45.014Z,25.50
2018-09-04T22:11:19.369Z,27.10
2018-09-04T22:13:53.408Z,25.45
2018-09-04T22:16:27.770Z,26.60
2018-09-04T22:19:01.939Z,26.93
2018-09-04T22:21:36.038Z,26.25
2018-09-04T22:24:10.179Z,26.52
2018-09-04T22:26:43.980Z,24.33
2018-09-04T22:29:18.178Z,26.50
2018-09-04T22:31:59.469Z,24.45
2018-09-04T22:34:33.585Z,25.70
2018-09-04T22:37:07.613Z,26.33
2018-09-04T22:39:41.515Z,26.05
2018-09-04T22:42:15.647Z,25.77
2018-09-04T22:44:49.696Z,26.25
2018-09-04T22:47:23.540Z,26.77
2018-09-04T22:50:03.222Z,27.50
2018-09-04T22:52:36.968Z,27.43
2018-09-04T22:55:12.123Z,26.73
2018-09-04T22:57:45.879Z,25.80
2018-09-04T23:00:19.655Z,27.27
2018-09-04T23:02:53.701Z,27.13
2018-09-04T23:05:27.844Z,26.90
2018-09-04T23:08:01.880Z,27.40
2018-09-04T23:10:35.981Z,26.12
2018-09-04T23:13:09.965Z,27.60
2018-09-04T23:15:44.248Z,26.97
2018-09-04T23:18:18.049Z,26.68
2018-09-04T23:20:51.892Z,28.17
2018-09-04T23:23:26.008Z,27.77
2018-09-04T23:26:00.001Z,28.50
2018-09-04T23:28:33.871Z,27.53
2018-09-04T23:31:08.410Z,28.27
2018-09-04T23:33:42.598Z,26.67
2018-09-04T23:36:17.109Z,26.27
2018-09-04T23:38:50.817Z,26.30
2018-09-04T23:41:25.054Z,27.03
2018-09-04T23:43:59.294Z,26.90
2018-09-04T23:46:33.373Z,27.00
2018-09-04T23:49:07.620Z,26.80
2018-09-04T23:51:41.622Z,26.33
2018-09-04T23:54:15.649Z,27.53
2018-09-04T23:56:49.760Z,26.23
2018-09-04T23:59:24.669Z,27.27
